Airville, Pennsylvania
Current Conditions -  °F | °C
As of 4:53 AM on Thursday 23 Oct 2014 (Local Time) from KLNS Reporting Station
Overcast Overcast  
Wind Chill: 51°   Ceiling: 2700
Heat Index: 51°   Visibility: 10mi
Dew Point: 42°   Wind: 10mph
Humidity: 71%   Direction: 330°NNW
Pressure: 29.83"   Gusts: 22mph
Location:  39.83°N, 76.41°W
Report Text: KLNS 230853Z AUTO 33009G19KT 10SM OVC027 11/06 A2983 RMK AO2 PK WND 34026/0809 SLP102 60000 T01060056 58003
Loading
Personal Weather Stations






























Interactive Weather Map
Tropical Storm Tracking
New forecast layout! Learn more

10-Day Weather Forecast

Advertisements
Track Severe Weather on mobile